Time;durP1;ratioP1;P1;durP2;ratioP2;P2;SDS_P1;SDS_P2;PMS_P1;PMS_P2;Temp;Humidity;BMP_temperature;BMP_pressure;BME280_temperature;BME280_humidity;BME280_pressure;Samples;Min_cycle;Max_cycle;Signal;HPM_P1;HPM_P2
2023/05/28 00:00:28;;;;;;;21.42;12.50;;;13.40;99.90;;;;;;4589250;19;20011;-26
2023/05/28 00:02:19;;;;;;;18.47;12.27;;;13.40;99.90;;;;;;4589452;19;20483;-26
2023/05/28 00:03:51;;;;;;;20.90;12.20;;;13.30;99.90;;;;;;4589960;19;20007;-24
2023/05/28 00:05:23;;;;;;;19.70;12.15;;;13.30;99.90;;;;;;4590092;19;20457;-23
2023/05/28 00:06:55;;;;;;;20.30;12.98;;;13.30;99.90;;;;;;4590721;19;20023;-24
2023/05/28 00:08:27;;;;;;;18.57;11.57;;;13.30;99.90;;;;;;4590290;19;20023;-27
2023/05/28 00:09:59;;;;;;;;;;;13.30;99.90;;;;;;4590778;19;20011;-25
2023/05/28 00:11:32;;;;;;;20.57;12.47;;;13.30;99.90;;;;;;4587757;19;20274;-23
2023/05/28 00:13:03;;;;;;;17.80;10.88;;;13.20;99.90;;;;;;4589128;19;20499;-23
2023/05/28 00:14:35;;;;;;;15.23;9.98;;;13.20;99.90;;;;;;4590290;19;20030;-23
2023/05/28 00:16:06;;;;;;;18.38;10.25;;;13.30;99.90;;;;;;4590699;19;20066;-26
2023/05/28 00:17:37;;;;;;;15.40;9.82;;;13.20;99.90;;;;;;4590700;19;20011;-27
2023/05/28 00:19:09;;;;;;;14.43;9.53;;;13.20;99.90;;;;;;4589740;19;20014;-24
2023/05/28 00:20:40;;;;;;;16.33;10.48;;;13.20;99.90;;;;;;4590143;19;20425;-23
2023/05/28 00:22:12;;;;;;;13.23;8.57;;;13.20;99.90;;;;;;4593386;19;20011;-23
2023/05/28 00:23:43;;;;;;;13.68;8.95;;;13.20;99.90;;;;;;4593099;19;20074;-27
2023/05/28 00:25:16;;;;;;;14.77;9.30;;;13.10;99.90;;;;;;4592778;19;20099;-29
2023/05/28 00:26:47;;;;;;;14.90;8.63;;;13.10;99.90;;;;;;4594742;19;20010;-23
2023/05/28 00:28:18;;;;;;;;;;;13.10;99.90;;;;;;4594726;19;20477;-26
2023/05/28 00:29:49;;;;;;;14.47;8.73;;;13.10;99.90;;;;;;4592833;19;19942;-24
2023/05/28 00:31:22;;;;;;;12.73;7.53;;;13.10;99.90;;;;;;4594772;19;20116;-24
2023/05/28 00:32:54;;;;;;;15.43;9.25;;;13.10;99.90;;;;;;4594646;19;20460;-24
2023/05/28 00:34:26;;;;;;;14.40;9.03;;;13.10;99.90;;;;;;4593725;19;20039;-24
2023/05/28 00:35:57;;;;;;;13.05;8.10;;;13.10;99.90;;;;;;4594049;19;20472;-23
2023/05/28 00:37:29;;;;;;;11.40;7.70;;;13.10;99.90;;;;;;4594351;19;20082;-27
2023/05/28 00:39:04;;;;;;;12.48;8.00;;;13.10;99.90;;;;;;4594707;19;20014;-23
2023/05/28 00:40:36;;;;;;;12.83;8.20;;;13.00;99.90;;;;;;4594589;19;20027;-25
2023/05/28 00:42:12;;;;;;;14.43;8.27;;;13.00;99.90;;;;;;4593988;19;20449;-23
2023/05/28 00:43:43;;;;;;;12.13;7.53;;;13.00;99.90;;;;;;4594328;19;20479;-23
2023/05/28 00:45:17;;;;;;;14.27;9.50;;;13.00;99.90;;;;;;4594315;19;20031;-27
2023/05/28 00:46:49;;;;;;;15.60;10.43;;;13.00;99.90;;;;;;4594851;19;20002;-25
2023/05/28 00:48:21;;;;;;;24.80;16.60;;;12.90;99.90;;;;;;4594117;19;20044;-23
2023/05/28 00:49:55;;;;;;;23.70;17.30;;;12.90;99.90;;;;;;4592899;19;20517;-26
2023/05/28 00:51:27;;;;;;;26.00;16.83;;;12.90;99.90;;;;;;4593231;19;20441;-28
2023/05/28 00:52:59;;;;;;;23.30;14.90;;;12.90;99.90;;;;;;4592958;19;20570;-22
2023/05/28 00:54:30;;;;;;;21.88;14.57;;;12.90;99.90;;;;;;4593531;19;20485;-27
2023/05/28 00:56:02;;;;;;;;;;;12.90;99.90;;;;;;4593856;19;20021;-27
2023/05/28 00:57:36;;;;;;;21.27;13.90;;;12.90;99.90;;;;;;4592757;19;19919;-27
2023/05/28 00:59:07;;;;;;;;;;;12.90;99.90;;;;;;4594876;19;20447;-28
2023/05/28 01:00:39;;;;;;;16.85;11.52;;;12.90;99.90;;;;;;4593745;19;19918;-24
2023/05/28 01:02:10;;;;;;;19.17;12.63;;;12.90;99.90;;;;;;4592715;19;20011;-26
2023/05/28 01:03:42;;;;;;;16.60;11.57;;;12.90;99.90;;;;;;4593898;19;20013;-25
2023/05/28 01:05:14;;;;;;;18.33;11.07;;;12.90;99.90;;;;;;4593938;19;20038;-26
2023/05/28 01:06:48;;;;;;;16.87;10.70;;;12.90;99.90;;;;;;4592455;19;20469;-23
2023/05/28 01:08:20;;;;;;;17.70;11.33;;;12.90;99.90;;;;;;4592602;19;20429;-28
2023/05/28 01:09:52;;;;;;;17.30;10.95;;;12.90;99.90;;;;;;4592376;19;20022;-23
2023/05/28 01:11:23;;;;;;;;;;;12.90;99.90;;;;;;4594315;19;20341;-27
2023/05/28 01:12:57;;;;;;;16.30;11.00;;;12.90;99.90;;;;;;4592610;19;20344;-25
2023/05/28 01:14:30;;;;;;;17.30;10.93;;;12.90;99.90;;;;;;4592276;19;20449;-24
2023/05/28 01:16:03;;;;;;;16.83;9.93;;;12.90;99.90;;;;;;4592677;19;20010;-28
2023/05/28 01:17:34;;;;;;;13.40;10.35;;;12.90;99.90;;;;;;4592098;19;20470;-23
2023/05/28 01:19:08;;;;;;;16.03;10.90;;;12.80;99.90;;;;;;4592695;19;20015;-23
2023/05/28 01:20:39;;;;;;;14.20;9.13;;;12.80;99.90;;;;;;4593047;19;20478;-23
2023/05/28 01:22:12;;;;;;;14.35;9.25;;;12.90;99.90;;;;;;4592883;19;20018;-22
2023/05/28 01:23:46;;;;;;;13.97;8.23;;;12.80;99.90;;;;;;4591380;19;20025;-23
2023/05/28 01:25:18;;;;;;;14.37;7.90;;;12.80;99.90;;;;;;4591094;19;20035;-23
2023/05/28 01:26:53;;;;;;;16.13;8.57;;;12.80;99.90;;;;;;4592391;19;20401;-27
2023/05/28 01:28:25;;;;;;;13.68;9.73;;;12.80;99.90;;;;;;4592719;19;20544;-24
2023/05/28 01:29:57;;;;;;;15.80;9.50;;;12.80;99.90;;;;;;4590822;19;20014;-23
2023/05/28 01:31:29;;;;;;;15.40;9.90;;;12.80;99.90;;;;;;4592793;19;20025;-24
2023/05/28 01:33:03;;;;;;;13.60;9.33;;;12.80;99.90;;;;;;4592222;19;20528;-30
2023/05/28 01:34:34;;;;;;;14.88;9.30;;;12.80;99.90;;;;;;4591680;19;20018;-22
2023/05/28 01:36:07;;;;;;;14.23;9.88;;;12.80;99.90;;;;;;4592102;19;20010;-24
2023/05/28 01:37:44;;;;;;;18.37;12.33;;;12.70;99.90;;;;;;4592942;19;20382;-24
2023/05/28 01:39:16;;;;;;;17.97;12.33;;;12.80;99.90;;;;;;4591847;19;20830;-29
2023/05/28 01:40:47;;;;;;;16.63;11.70;;;12.80;99.90;;;;;;4592461;19;20824;-25
2023/05/28 01:42:19;;;;;;;17.10;11.75;;;12.70;99.90;;;;;;4591879;19;20437;-23
2023/05/28 01:43:53;;;;;;;17.33;11.00;;;12.70;99.90;;;;;;4592919;19;20011;-24
2023/05/28 01:45:25;;;;;;;16.70;11.80;;;12.70;99.90;;;;;;4593275;19;20453;-24
2023/05/28 01:46:57;;;;;;;20.30;13.07;;;12.70;99.90;;;;;;4592337;19;20976;-26
2023/05/28 01:48:30;;;;;;;19.93;13.83;;;12.70;99.90;;;;;;4591592;19;20445;-24
2023/05/28 01:50:01;;;;;;;17.45;11.70;;;12.70;99.90;;;;;;4590522;19;20892;-22
2023/05/28 01:51:34;;;;;;;18.80;12.13;;;12.70;99.90;;;;;;4591815;19;20030;-24
2023/05/28 01:53:05;;;;;;;17.27;11.13;;;12.60;99.90;;;;;;4591828;19;20010;-24
2023/05/28 01:54:37;;;;;;;19.05;10.80;;;12.60;99.90;;;;;;4591554;19;20078;-24
2023/05/28 01:56:09;;;;;;;;;;;12.60;99.90;;;;;;4593421;19;20014;-23
2023/05/28 01:57:42;;;;;;;22.57;13.47;;;12.60;99.90;;;;;;4592104;19;19925;-24
2023/05/28 01:59:14;;;;;;;28.83;16.47;;;12.60;99.90;;;;;;4592042;19;20445;-24
2023/05/28 02:00:55;;;;;;;25.30;15.40;;;12.60;99.90;;;;;;4592631;19;20448;-23
2023/05/28 02:02:28;;;;;;;20.40;12.70;;;12.60;99.90;;;;;;4591844;19;20014;-25
2023/05/28 02:03:59;;;;;;;;;;;12.60;99.90;;;;;;4593618;19;20038;-24
2023/05/28 02:05:31;;;;;;;16.00;11.18;;;12.60;99.90;;;;;;4592648;19;19925;-23
2023/05/28 02:07:03;;;;;;;;;;;12.60;99.90;;;;;;4593443;19;20010;-28
2023/05/28 02:08:34;;;;;;;15.30;10.90;;;12.60;99.90;;;;;;4592638;19;19931;-29
2023/05/28 02:10:06;;;;;;;15.85;9.77;;;12.60;99.90;;;;;;4592330;19;21045;-29
2023/05/28 02:11:39;;;;;;;17.37;11.40;;;12.60;99.90;;;;;;4592231;19;20027;-24
2023/05/28 02:13:11;;;;;;;20.23;14.10;;;12.60;99.90;;;;;;4589916;19;20466;-21
2023/05/28 02:14:44;;;;;;;22.00;13.00;;;12.60;99.90;;;;;;4591889;19;20010;-25
2023/05/28 02:16:18;;;;;;;;;;;12.50;99.90;;;;;;4593970;19;20011;-27
2023/05/28 02:17:49;;;;;;;18.43;11.50;;;12.50;99.90;;;;;;4591004;19;19947;-23
2023/05/28 02:19:21;;;;;;;14.85;10.10;;;12.50;99.90;;;;;;4592289;19;20512;-23
2023/05/28 02:20:56;;;;;;;16.07;9.23;;;12.50;99.90;;;;;;4591367;19;20006;-22
2023/05/28 02:22:29;;;;;;;15.33;9.30;;;12.50;99.90;;;;;;4592067;19;20015;-23
2023/05/28 02:24:00;;;;;;;;;;;12.50;99.90;;;;;;4592157;19;20362;-24
2023/05/28 02:25:31;;;;;;;15.13;9.77;;;12.50;99.90;;;;;;4590824;19;20251;-25
2023/05/28 02:27:06;;;;;;;17.00;10.90;;;12.50;99.90;;;;;;4592427;19;20006;-23
2023/05/28 02:28:37;;;;;;;13.57;9.53;;;12.50;99.90;;;;;;4591122;19;20441;-24
2023/05/28 02:30:10;;;;;;;15.40;9.93;;;12.50;99.90;;;;;;4590690;19;20376;-23
2023/05/28 02:31:41;;;;;;;15.63;9.30;;;12.50;99.90;;;;;;4592111;19;20368;-23
2023/05/28 02:33:13;;;;;;;14.97;9.80;;;12.50;99.90;;;;;;4591383;19;20015;-23
2023/05/28 02:34:44;;;;;;;16.92;10.23;;;12.50;99.90;;;;;;4591540;19;20018;-24
2023/05/28 02:36:15;;;;;;;17.42;10.27;;;12.40;99.90;;;;;;4590917;19;20054;-23
2023/05/28 02:37:47;;;;;;;17.80;11.00;;;12.40;99.90;;;;;;4591289;19;20015;-24
2023/05/28 02:39:21;;;;;;;18.53;11.90;;;12.50;99.90;;;;;;4592438;19;20425;-24
2023/05/28 02:40:54;;;;;;;17.43;12.13;;;12.50;99.90;;;;;;4591692;19;20432;-24
2023/05/28 02:42:25;;;;;;;18.42;10.32;;;12.40;99.90;;;;;;4591569;19;20552;-24
2023/05/28 02:43:56;;;;;;;18.55;11.68;;;12.40;99.90;;;;;;4592030;19;20002;-23
2023/05/28 02:45:29;;;;;;;20.70;11.53;;;12.40;99.90;;;;;;4591963;19;20460;-24
2023/05/28 02:47:00;;;;;;;;;;;12.40;99.90;;;;;;4592546;19;20467;-24
2023/05/28 02:48:32;;;;;;;17.87;11.70;;;12.40;99.90;;;;;;4590437;19;19916;-24
2023/05/28 02:50:03;;;;;;;19.75;12.07;;;12.40;99.90;;;;;;4590827;19;20066;-23
2023/05/28 02:51:35;;;;;;;17.70;11.43;;;12.40;99.90;;;;;;4592023;19;20019;-23
2023/05/28 02:53:06;;;;;;;19.10;12.02;;;12.40;99.90;;;;;;4590307;19;20550;-25
2023/05/28 02:54:38;;;;;;;17.05;11.38;;;12.30;99.90;;;;;;4590342;19;20014;-23
2023/05/28 02:56:09;;;;;;;16.70;10.45;;;12.40;99.90;;;;;;4591404;19;20035;-23
2023/05/28 02:57:40;;;;;;;19.00;11.05;;;12.40;99.90;;;;;;4590234;19;20542;-27
2023/05/28 02:59:11;;;;;;;16.52;10.25;;;12.40;99.90;;;;;;4590901;19;20474;-25
2023/05/28 03:00:44;;;;;;;16.97;10.40;;;12.30;99.90;;;;;;4590229;19;20018;-23
2023/05/28 03:02:15;;;;;;;16.25;10.60;;;12.40;99.90;;;;;;4590780;19;20477;-24
2023/05/28 03:03:47;;;;;;;16.93;10.60;;;12.40;99.90;;;;;;4588843;19;20011;-23
2023/05/28 03:05:19;;;;;;;17.30;11.32;;;12.40;99.90;;;;;;4589030;19;20465;-27
2023/05/28 03:06:52;;;;;;;19.43;12.10;;;12.50;99.90;;;;;;4588785;19;20018;-24
2023/05/28 03:08:24;;;;;;;17.60;10.88;;;12.50;99.90;;;;;;4589085;19;20432;-24
2023/05/28 03:09:56;;;;;;;;;;;12.50;99.90;;;;;;4589377;19;20493;-24
2023/05/28 03:11:27;;;;;;;20.65;12.18;;;12.50;99.90;;;;;;4588988;19;20289;-23
2023/05/28 03:12:59;;;;;;;17.20;11.80;;;12.60;99.90;;;;;;4588786;19;20342;-25
2023/05/28 03:14:31;;;;;;;;;;;12.60;99.90;;;;;;4590417;19;20012;-22
2023/05/28 03:16:02;;;;;;;24.83;16.00;;;12.60;99.90;;;;;;4589057;19;19925;-25
2023/05/28 03:17:33;;;;;;;22.15;14.20;;;12.60;99.90;;;;;;4589076;19;20014;-28
2023/05/28 03:19:05;;;;;;;20.75;12.98;;;12.60;99.90;;;;;;4588990;19;20469;-26
2023/05/28 03:20:36;;;;;;;19.33;12.30;;;12.60;99.90;;;;;;4589017;19;20354;-25
2023/05/28 03:22:10;;;;;;;21.30;14.60;;;12.60;99.90;;;;;;4588847;19;20088;-25
2023/05/28 03:23:41;;;;;;;21.27;13.03;;;12.60;99.90;;;;;;4588433;19;21041;-23
2023/05/28 03:25:13;;;;;;;19.42;13.05;;;12.60;99.90;;;;;;4588256;19;20497;-23
2023/05/28 03:26:44;;;;;;;20.90;13.25;;;12.60;99.90;;;;;;4588723;19;20027;-24
2023/05/28 03:28:17;;;;;;;16.57;12.23;;;12.60;99.90;;;;;;4588707;19;20035;-26
2023/05/28 03:29:50;;;;;;;15.97;11.10;;;12.60;99.90;;;;;;4588284;19;20035;-23
2023/05/28 03:31:29;;;;;;;16.33;11.60;;;12.60;99.90;;;;;;4588859;19;20429;-27
2023/05/28 03:33:01;;;;;;;16.47;11.17;;;12.70;99.90;;;;;;4588619;19;20023;-24
2023/05/28 03:34:33;;;;;;;;;;;12.70;99.90;;;;;;4589504;19;20034;-23
2023/05/28 03:36:06;;;;;;;16.05;9.90;;;12.70;99.90;;;;;;4591359;19;19921;-25
2023/05/28 03:37:39;;;;;;;17.23;11.27;;;12.60;99.90;;;;;;4589535;19;20026;-26
2023/05/28 03:39:12;;;;;;;18.63;11.97;;;12.60;99.90;;;;;;4590325;19;20459;-23
2023/05/28 03:40:43;;;;;;;17.65;12.45;;;12.60;99.90;;;;;;4590770;19;20077;-27
2023/05/28 03:42:15;;;;;;;17.98;11.93;;;12.60;99.90;;;;;;4591078;19;20533;-24
2023/05/28 03:43:46;;;;;;;16.88;11.43;;;12.60;99.90;;;;;;4590951;19;20014;-22
2023/05/28 03:45:18;;;;;;;17.98;10.38;;;12.60;99.90;;;;;;4589507;19;20021;-24
2023/05/28 03:46:49;;;;;;;;;;;12.60;99.90;;;;;;4590910;19;20019;-28
2023/05/28 03:48:22;;;;;;;16.60;10.83;;;12.60;99.90;;;;;;4590651;19;19982;-28
2023/05/28 03:49:53;;;;;;;16.10;10.90;;;12.60;99.90;;;;;;4590505;19;20452;-26
2023/05/28 03:51:26;;;;;;;15.52;10.43;;;12.60;99.90;;;;;;4590506;19;20018;-23
2023/05/28 03:52:58;;;;;;;14.17;10.00;;;12.60;99.90;;;;;;4587995;19;20030;-23
2023/05/28 03:54:29;;;;;;;;;;;12.60;99.90;;;;;;4589179;19;20411;-22
2023/05/28 03:56:01;;;;;;;16.37;11.00;;;12.60;99.90;;;;;;4587103;19;19915;-23
2023/05/28 03:57:33;;;;;;;16.27;10.13;;;12.60;99.90;;;;;;4587821;19;20577;-24
2023/05/28 03:59:05;;;;;;;15.60;11.00;;;12.60;99.90;;;;;;4587936;19;20441;-23
2023/05/28 04:00:37;;;;;;;14.95;9.90;;;12.70;99.90;;;;;;4588323;19;20460;-23
2023/05/28 04:02:10;;;;;;;17.37;10.60;;;12.70;99.90;;;;;;4587883;19;20045;-24
2023/05/28 04:03:42;;;;;;;15.63;9.90;;;12.70;99.90;;;;;;4588161;19;20031;-23
2023/05/28 04:05:14;;;;;;;15.03;10.90;;;12.70;99.90;;;;;;4588213;19;20476;-24
2023/05/28 04:06:46;;;;;;;12.00;9.43;;;12.70;99.90;;;;;;4588365;19;20487;-24
2023/05/28 04:08:18;;;;;;;17.40;11.13;;;12.70;99.90;;;;;;4588102;19;20018;-25
2023/05/28 04:09:51;;;;;;;13.57;9.43;;;12.70;99.90;;;;;;4587446;19;20018;-28
2023/05/28 04:11:24;;;;;;;16.00;10.20;;;12.80;99.90;;;;;;4588435;19;20035;-29
2023/05/28 04:12:57;;;;;;;17.27;10.73;;;12.80;99.90;;;;;;4588101;19;20357;-27
2023/05/28 04:14:29;;;;;;;;;;;12.80;99.90;;;;;;4588843;19;20010;-28
2023/05/28 04:16:01;;;;;;;16.30;10.80;;;12.80;99.90;;;;;;4588161;19;19915;-26
2023/05/28 04:17:32;;;;;;;13.37;9.40;;;12.80;99.90;;;;;;4588145;19;20448;-26
2023/05/28 04:19:05;;;;;;;16.83;11.17;;;12.80;99.90;;;;;;4587991;19;20898;-23
2023/05/28 04:20:38;;;;;;;15.07;11.13;;;12.80;99.90;;;;;;4587748;19;20006;-23
2023/05/28 04:22:09;;;;;;;16.40;11.02;;;12.90;99.90;;;;;;4588023;19;20509;-23
2023/05/28 04:23:40;;;;;;;17.67;11.85;;;12.90;99.90;;;;;;4587642;19;20022;-23
2023/05/28 04:25:14;;;;;;;20.47;13.37;;;12.90;99.90;;;;;;4587121;19;20473;-24
2023/05/28 04:26:47;;;;;;;23.23;14.37;;;12.90;99.90;;;;;;4587977;19;20015;-23
2023/05/28 04:28:19;;;;;;;22.73;14.23;;;12.90;99.90;;;;;;4588010;19;20047;-24
2023/05/28 04:29:56;;;;;;;24.03;16.37;;;13.00;99.90;;;;;;4587540;19;20013;-22
2023/05/28 04:31:28;;;;;;;20.27;13.33;;;13.00;99.90;;;;;;4589125;19;20010;-24
2023/05/28 04:32:59;;;;;;;16.70;11.23;;;13.00;99.90;;;;;;4590036;19;20025;-28
2023/05/28 04:34:33;;;;;;;15.90;11.03;;;13.10;99.90;;;;;;4590208;19;20007;-24
2023/05/28 04:36:08;;;;;;;12.03;7.83;;;13.10;99.90;;;;;;4590111;19;20002;-22
2023/05/28 04:37:40;;;;;;;12.63;8.03;;;13.10;99.90;;;;;;4589399;19;20800;-23
2023/05/28 04:39:11;;;;;;;;;;;13.20;99.90;;;;;;4590458;19;20018;-23
2023/05/28 04:40:44;;;;;;;13.87;9.13;;;13.20;99.90;;;;;;4589942;19;19952;-23
2023/05/28 04:42:17;;;;;;;10.80;6.82;;;13.20;99.90;;;;;;4589826;19;20444;-23
2023/05/28 04:43:49;;;;;;;10.73;6.30;;;13.20;99.90;;;;;;4588241;19;20079;-23
2023/05/28 04:45:22;;;;;;;9.07;5.53;;;13.20;99.90;;;;;;4589194;19;20074;-23
2023/05/28 04:46:53;;;;;;;7.60;5.10;;;13.30;99.90;;;;;;4590011;19;20074;-22
2023/05/28 04:48:26;;;;;;;7.70;5.33;;;13.30;99.90;;;;;;4589727;19;20003;-24
2023/05/28 04:49:57;;;;;;;7.40;4.80;;;13.30;99.90;;;;;;4588320;19;20052;-23
2023/05/28 04:51:29;;;;;;;;;;;13.30;99.90;;;;;;4590894;19;20030;-22
2023/05/28 04:53:00;;;;;;;7.20;4.73;;;13.40;99.90;;;;;;4589840;19;19910;-26
2023/05/28 04:54:33;;;;;;;7.33;4.77;;;13.40;99.90;;;;;;4590233;19;20103;-23
2023/05/28 04:56:05;;;;;;;8.15;5.07;;;13.50;99.90;;;;;;4589531;19;20021;-23
2023/05/28 04:57:36;;;;;;;9.15;5.05;;;13.50;99.90;;;;;;4589886;19;20035;-23
2023/05/28 04:59:09;;;;;;;9.17;6.13;;;13.50;99.90;;;;;;4588261;19;20537;-23
2023/05/28 05:00:40;;;;;;;7.00;4.70;;;13.60;99.90;;;;;;4589447;19;20019;-27
2023/05/28 05:02:13;;;;;;;8.47;5.27;;;13.60;99.90;;;;;;4589389;19;20017;-24
2023/05/28 05:03:44;;;;;;;8.88;5.57;;;13.60;99.90;;;;;;4589566;19;20500;-22
2023/05/28 05:05:16;;;;;;;8.60;5.80;;;13.60;99.90;;;;;;4588334;19;20033;-23
2023/05/28 05:06:47;;;;;;;6.67;4.97;;;13.60;99.90;;;;;;4587800;19;20017;-25
2023/05/28 05:08:18;;;;;;;8.48;5.40;;;13.70;99.90;;;;;;4589303;19;20031;-24
2023/05/28 05:09:50;;;;;;;8.55;5.78;;;13.70;99.90;;;;;;4593466;19;20027;-22
2023/05/28 05:11:22;;;;;;;;;;;13.70;99.90;;;;;;4595298;19;20348;-27
2023/05/28 05:12:53;;;;;;;8.27;5.43;;;13.70;99.90;;;;;;4593561;19;19915;-23
2023/05/28 05:14:24;;;;;;;7.95;5.57;;;13.70;99.90;;;;;;4593909;19;20070;-24
2023/05/28 05:15:57;;;;;;;8.90;5.40;;;13.70;99.90;;;;;;4593482;19;20015;-23
2023/05/28 05:17:28;;;;;;;8.73;4.57;;;13.70;99.90;;;;;;4594338;19;19998;-23
2023/05/28 05:19:00;;;;;;;7.75;4.82;;;13.80;99.90;;;;;;4593534;19;20030;-24
2023/05/28 05:20:32;;;;;;;8.60;5.00;;;13.80;99.90;;;;;;4593465;19;20010;-26
2023/05/28 05:22:04;;;;;;;6.90;4.43;;;13.80;99.90;;;;;;4593227;19;20011;-23
2023/05/28 05:23:37;;;;;;;7.03;4.57;;;13.80;99.90;;;;;;4593211;19;20015;-24
2023/05/28 05:25:09;;;;;;;8.33;4.93;;;13.80;99.90;;;;;;4592589;19;20056;-24
2023/05/28 05:26:40;;;;;;;6.60;4.55;;;13.80;99.90;;;;;;4593783;19;20011;-24
2023/05/28 05:28:12;;;;;;;7.63;4.40;;;13.90;99.90;;;;;;4593745;19;20009;-27
2023/05/28 05:29:44;;;;;;;6.53;4.23;;;13.90;99.90;;;;;;4591392;19;20014;-24
2023/05/28 05:31:15;;;;;;;6.97;3.55;;;13.90;99.90;;;;;;4592760;19;20017;-22
2023/05/28 05:32:47;;;;;;;7.10;4.22;;;13.90;99.90;;;;;;4593678;19;20019;-25
2023/05/28 05:34:19;;;;;;;6.77;3.67;;;14.00;99.90;;;;;;4593360;19;20006;-25
2023/05/28 05:35:51;;;;;;;6.57;3.83;;;14.00;99.90;;;;;;4593158;19;20018;-25
2023/05/28 05:37:23;;;;;;;7.43;3.85;;;14.00;99.90;;;;;;4593420;19;20015;-22
2023/05/28 05:38:55;;;;;;;6.40;4.07;;;14.00;99.90;;;;;;4593039;19;20040;-23
2023/05/28 05:40:27;;;;;;;5.70;3.80;;;14.00;99.90;;;;;;4593953;19;20019;-22
2023/05/28 05:41:59;;;;;;;6.67;4.07;;;14.10;99.90;;;;;;4593110;19;20031;-23
2023/05/28 05:43:30;;;;;;;6.38;3.63;;;14.10;99.90;;;;;;4592954;19;20010;-23
2023/05/28 05:45:05;;;;;;;5.97;3.87;;;14.10;99.90;;;;;;4593139;19;20369;-23
2023/05/28 05:46:37;;;;;;;8.13;4.73;;;14.10;99.90;;;;;;4593314;19;20014;-24
2023/05/28 05:48:10;;;;;;;6.03;4.03;;;14.10;99.90;;;;;;4592832;19;20081;-23
2023/05/28 05:49:41;;;;;;;5.40;3.42;;;14.20;99.90;;;;;;4592653;19;20006;-24
2023/05/28 05:51:18;;;;;;;6.32;3.65;;;14.20;99.90;;;;;;4592105;19;20038;-23
2023/05/28 05:52:50;;;;;;;6.03;3.50;;;14.20;99.90;;;;;;4592567;19;20003;-24
2023/05/28 05:54:21;;;;;;;5.15;3.38;;;14.20;99.90;;;;;;4591414;19;20007;-28
2023/05/28 05:55:53;;;;;;;6.10;3.57;;;14.30;99.90;;;;;;4592879;19;20046;-27
2023/05/28 05:57:26;;;;;;;5.55;3.67;;;14.30;99.90;;;;;;4593042;19;20036;-25
2023/05/28 05:58:58;;;;;;;5.73;3.27;;;14.30;99.90;;;;;;4593105;19;20087;-23
2023/05/28 06:00:29;;;;;;;4.67;3.03;;;14.30;99.90;;;;;;4592621;19;20037;-22
2023/05/28 06:02:00;;;;;;;4.78;3.30;;;14.30;99.90;;;;;;4592783;19;20011;-23
2023/05/28 06:03:32;;;;;;;5.30;3.23;;;14.40;99.90;;;;;;4592960;19;20464;-23
2023/05/28 06:05:06;;;;;;;6.27;3.60;;;14.40;99.90;;;;;;4590548;19;20011;-27
2023/05/28 06:06:38;;;;;;;4.57;3.13;;;14.40;99.90;;;;;;4592686;19;20018;-27
2023/05/28 06:08:09;;;;;;;4.93;3.50;;;14.40;99.90;;;;;;4592651;19;20383;-25
2023/05/28 06:09:41;;;;;;;;;;;14.50;99.90;;;;;;4593109;19;20018;-24
2023/05/28 06:11:12;;;;;;;8.03;3.77;;;14.50;99.90;;;;;;4591950;19;19924;-22
2023/05/28 06:12:43;;;;;;;5.75;3.90;;;14.50;99.90;;;;;;4591222;19;20015;-22
2023/05/28 06:14:16;;;;;;;6.53;3.43;;;14.60;99.90;;;;;;4591076;19;20022;-23
2023/05/28 06:15:47;;;;;;;;;;;14.60;99.90;;;;;;4593483;19;20043;-22
2023/05/28 06:17:18;;;;;;;5.85;3.80;;;14.60;99.90;;;;;;4590587;19;19915;-24
2023/05/28 06:18:51;;;;;;;5.80;3.97;;;14.60;99.90;;;;;;4590752;19;20023;-22
2023/05/28 06:20:22;;;;;;;6.00;3.65;;;14.60;99.90;;;;;;4592661;19;20021;-24
2023/05/28 06:21:54;;;;;;;6.82;3.92;;;14.60;99.90;;;;;;4592550;19;20019;-23
2023/05/28 06:23:25;;;;;;;8.05;3.85;;;14.60;99.90;;;;;;4590716;19;20381;-28
2023/05/28 06:24:56;;;;;;;7.82;4.63;;;14.70;99.90;;;;;;4591310;19;20022;-24
2023/05/28 06:26:28;;;;;;;7.50;4.38;;;14.70;99.90;;;;;;4591198;19;20018;-25
2023/05/28 06:28:00;;;;;;;6.17;4.70;;;14.70;99.90;;;;;;4591719;19;20014;-23
2023/05/28 06:29:32;;;;;;;6.73;4.60;;;14.80;99.90;;;;;;4589771;19;20382;-27
2023/05/28 06:31:04;;;;;;;7.55;5.60;;;14.80;99.90;;;;;;4592665;19;20014;-25
2023/05/28 06:32:36;;;;;;;6.47;4.53;;;14.80;99.90;;;;;;4593026;19;20105;-24
2023/05/28 06:34:07;;;;;;;6.97;4.78;;;14.80;99.90;;;;;;4591966;19;20026;-24
2023/05/28 06:35:39;;;;;;;9.38;5.57;;;14.90;99.90;;;;;;4591041;19;20042;-24
2023/05/28 06:37:11;;;;;;;8.85;6.07;;;14.90;99.90;;;;;;4591450;19;20152;-23
2023/05/28 06:38:42;;;;;;;9.40;5.45;;;14.90;99.90;;;;;;4590946;19;20025;-23
2023/05/28 06:40:13;;;;;;;8.38;6.07;;;14.90;99.90;;;;;;4591027;19;20407;-24
2023/05/28 06:41:45;;;;;;;9.70;5.70;;;14.90;99.90;;;;;;4590266;19;20007;-24
2023/05/28 06:43:16;;;;;;;8.63;6.03;;;14.90;99.90;;;;;;4590625;19;20026;-27
2023/05/28 06:44:48;;;;;;;9.57;6.88;;;14.90;99.90;;;;;;4590773;19;20434;-24
2023/05/28 06:46:21;;;;;;;;;;;14.90;99.90;;;;;;4592492;19;20019;-24
2023/05/28 06:47:52;;;;;;;;;;;15.00;99.90;;;;;;4591138;19;19932;-24
2023/05/28 06:49:23;;;;;;;10.27;6.95;;;15.00;99.90;;;;;;4590290;19;19915;-22
2023/05/28 06:50:56;;;;;;;13.05;8.70;;;15.00;99.90;;;;;;4591995;19;20015;-23
2023/05/28 06:52:27;;;;;;;12.20;7.93;;;15.00;99.90;;;;;;4591593;19;20011;-22
2023/05/28 06:53:58;;;;;;;9.48;7.53;;;15.10;99.90;;;;;;4590416;19;20015;-28
2023/05/28 06:55:29;;;;;;;11.77;8.07;;;15.10;99.90;;;;;;4591369;19;20027;-24
2023/05/28 06:57:00;;;;;;;13.20;9.00;;;15.10;99.90;;;;;;4589989;19;20495;-23
2023/05/28 06:58:32;;;;;;;10.55;7.25;;;15.10;99.90;;;;;;4590400;19;20039;-24
2023/05/28 07:00:16;;;;;;;9.93;7.47;;;15.10;99.90;;;;;;4590680;19;20412;-24
2023/05/28 07:01:47;;;;;;;8.80;6.83;;;15.20;99.90;;;;;;4591130;19;20017;-24
2023/05/28 07:03:18;;;;;;;10.52;7.88;;;15.10;99.90;;;;;;4590078;19;20603;-28
2023/05/28 07:04:51;;;;;;;12.23;8.67;;;15.20;99.90;;;;;;4592144;19;20349;-23
2023/05/28 07:06:22;;;;;;;11.73;8.25;;;15.10;99.90;;;;;;4589416;19;20047;-27
2023/05/28 07:07:55;;;;;;;10.55;7.43;;;15.20;99.90;;;;;;4589621;19;20019;-24
2023/05/28 07:09:27;;;;;;;11.73;8.43;;;15.20;99.90;;;;;;4589271;19;20010;-23
2023/05/28 07:10:58;;;;;;;11.63;8.33;;;15.20;99.90;;;;;;4589843;19;20014;-26
2023/05/28 07:12:30;;;;;;;11.75;9.40;;;15.20;99.90;;;;;;4589387;19;20007;-24
2023/05/28 07:14:02;;;;;;;13.13;9.23;;;15.30;99.90;;;;;;4590695;19;20018;-22
2023/05/28 07:15:33;;;;;;;13.50;8.75;;;15.30;99.90;;;;;;4590899;19;20042;-23
2023/05/28 07:17:04;;;;;;;12.52;8.20;;;15.30;99.90;;;;;;4590112;19;20400;-24
2023/05/28 07:18:36;;;;;;;11.45;8.02;;;15.30;99.90;;;;;;4590230;19;20018;-23
2023/05/28 07:20:08;;;;;;;10.13;7.85;;;15.30;99.90;;;;;;4591735;19;20085;-25
2023/05/28 07:21:39;;;;;;;13.30;9.00;;;15.30;99.90;;;;;;4591697;19;20029;-28
2023/05/28 07:23:11;;;;;;;13.67;9.13;;;15.30;99.90;;;;;;4591202;19;20010;-23
2023/05/28 07:24:43;;;;;;;14.05;9.35;;;15.30;99.90;;;;;;4589629;19;20492;-23
2023/05/28 07:26:14;;;;;;;11.00;8.77;;;15.30;99.90;;;;;;4590281;19;20027;-24
2023/05/28 07:27:47;;;;;;;9.23;6.13;;;15.40;99.90;;;;;;4590243;19;20069;-27
2023/05/28 07:29:19;;;;;;;11.20;6.93;;;15.40;99.90;;;;;;4590264;19;20031;-30
2023/05/28 07:30:51;;;;;;;10.15;6.22;;;15.30;99.90;;;;;;4590914;19;20011;-22
2023/05/28 07:32:24;;;;;;;10.75;7.95;;;15.40;99.90;;;;;;4588094;19;20019;-22
2023/05/28 07:33:55;;;;;;;12.30;8.27;;;15.40;99.90;;;;;;4589320;19;20015;-29
2023/05/28 07:35:27;;;;;;;10.77;6.70;;;15.40;99.90;;;;;;4590084;19;20022;-26
2023/05/28 07:36:58;;;;;;;7.30;4.18;;;15.50;99.90;;;;;;4590404;19;20026;-24
2023/05/28 07:38:30;;;;;;;8.52;5.03;;;15.50;99.90;;;;;;4588744;19;20027;-24
2023/05/28 07:40:05;;;;;;;8.00;5.32;;;15.50;99.90;;;;;;4591444;19;20002;-23
2023/05/28 07:41:36;;;;;;;10.70;6.60;;;15.50;99.90;;;;;;4589633;19;20022;-24
2023/05/28 07:43:07;;;;;;;9.45;5.93;;;15.50;99.90;;;;;;4590726;19;20025;-22
2023/05/28 07:44:43;;;;;;;6.03;3.50;;;15.50;99.90;;;;;;4590353;19;20038;-27
2023/05/28 07:46:25;;;;;;;7.45;3.88;;;15.50;99.90;;;;;;4587965;19;20482;-27
2023/05/28 07:47:57;;;;;;;5.45;3.08;;;15.50;99.90;;;;;;4591143;19;20006;-22
2023/05/28 07:49:28;;;;;;;3.97;2.80;;;15.50;99.20;;;;;;4588080;19;20094;-25
2023/05/28 07:50:59;;;;;;;5.80;3.67;;;15.50;99.90;;;;;;4588720;19;20368;-24
2023/05/28 07:52:31;;;;;;;6.43;3.20;;;15.50;99.90;;;;;;4589916;19;20007;-24
2023/05/28 07:54:03;;;;;;;2.08;1.40;;;15.60;99.90;;;;;;4590222;19;20022;-28
2023/05/28 07:55:35;;;;;;;3.22;1.25;;;15.60;99.10;;;;;;4587413;19;20019;-27
2023/05/28 07:57:07;;;;;;;3.70;1.52;;;15.60;99.90;;;;;;4588790;19;20018;-26